This is the latest recevied weather packets stored in our database for station/object kj4yre. If no packets are shown the sender has not sent any weather packets the latest 10 day(s).
| Time | Temp. | Humidity | Pressure | Rain* | Wind** | Luminosity | Snow |
|---|---|---|---|---|---|---|---|
| 1787605337 | 31.67° C | 43% | 1012.9 hPa | 0 mm | - | - | - |
| 1787601135 | 30° C | 50% | 1013.3 hPa | 0 mm | - | - | - |
| 1787599937 | 31.67° C | 47% | 1013.3 hPa | 0 mm | - | - | - |
| 1787593936 | 30.56° C | 49% | 1013.9 hPa | 0 mm | - | - | - |
| 1787590336 | 28.89° C | 52% | 1014.4 hPa | 0 mm | - | - | - |
| 1787584937 | 26.67° C | 55% | 1014.7 hPa | 0 mm | - | - | - |
| 1787584636 | 27.22° C | 57% | 1014.8 hPa | 0 mm | - | - | - |
| 1787580735 | 24.44° C | 71% | 1015 hPa | 0 mm | - | - | - |
| 1787580137 | 23.89° C | 81% | 1015.1 hPa | 0 mm | - | - | - |
| 1787579535 | 23.33° C | 81% | 1015.1 hPa | 0 mm | - | - | - |
| 1787579236 | 22.78° C | 80% | 1015.2 hPa | 0 mm | - | - | - |
| 1787578337 | 22.22° C | 83% | 1015.3 hPa | 0 mm | - | - | - |
| 1787577139 | 21.67° C | 88% | 1015.5 hPa | 0 mm | - | - | - |
| 1787573235 | 17.22° C | 100% | 1015 hPa | 0 mm | - | - | - |
| 1787571138 | 16.11° C | 100% | 1015.1 hPa | 0 mm | - | - | - |
| 1787568435 | 15.56° C | 100% | 1014.5 hPa | 0 mm | - | - | - |
| 1787563335 | 16.11° C | 100% | 1014.2 hPa | 0 mm | - | - | - |
| 1787562436 | 16.11° C | 100% | 1014.2 hPa | 0 mm | - | - | - |
| 1787560036 | 16.67° C | 100% | 1013.9 hPa | 0 mm | - | - | - |
| 1787559436 | 16.67° C | 100% | 1013.9 hPa | 0 mm | - | - | - |
| 1787558537 | 17.22° C | 100% | 1013.9 hPa | 0 mm | - | - | - |
| 1787557336 | 17.22° C | 100% | 1013.9 hPa | 0 mm | - | - | - |
| 1787555536 | 17.22° C | 100% | 1014.2 hPa | 0 mm | - | - | - |
| 1787553138 | 17.78° C | 100% | 1014.2 hPa | 0 mm | - | - | - |
| 1787550435 | 17.78° C | 100% | 1014.3 hPa | 0 mm | - | - | - |
* Rain latest hour (hover to see other rain measurements)
** Current wind speed in m/s (hover to see current wind gust speed)